PRIVATE WETTERSTATION BILLIGHEIM-ALLFELD                       ZURCK
Wetterdaten: Montag, 20.02.2017
Datum Zeit Temp. A. Temp. A. min Temp. A. max Feuchte A. Luftdruck Regen Wind Richtung Richtung Sonnenschein ET Solar Taupunkt Windchill Windben Empfang
20.02.2017 00:00 5,2 C 5,1 C 5,2 C 86 % 1022,9 hPa 0,0 l/m 0,0 km/h (0 Bft) N 0 0 min 0,000 mm 0 W/m 3,1 C 5,2 C 0,0 km/h (0 Bft) 100 %
20.02.2017 00:10 5,2 C 5,2 C 5,2 C 86 % 1023,0 hPa 0,0 l/m 0,0 km/h (0 Bft) N 0 0 min 0,000 mm 0 W/m 3,1 C 5,2 C 0,0 km/h (0 Bft) 99 %
20.02.2017 00:20 5,3 C 5,2 C 5,3 C 86 % 1022,9 hPa 0,0 l/m 0,0 km/h (0 Bft) S 180 0 min 0,000 mm 0 W/m 3,2 C 5,3 C 3,2 km/h (1 Bft) 100 %
20.02.2017 00:30 5,3 C 5,3 C 5,3 C 85 % 1022,8 hPa 0,0 l/m 0,0 km/h (0 Bft) S-SW 202 0 min 0,000 mm 0 W/m 3,0 C 5,3 C 6,4 km/h (2 Bft) 100 %
20.02.2017 00:40 5,3 C 5,3 C 5,3 C 86 % 1022,8 hPa 0,0 l/m 1,6 km/h (1 Bft) S-SW 202 0 min 0,000 mm 0 W/m 3,2 C 5,3 C 11,3 km/h (2 Bft) 100 %
20.02.2017 00:50 5,3 C 5,3 C 5,3 C 86 % 1022,7 hPa 0,0 l/m 0,0 km/h (0 Bft) W-SW 247 0 min 0,000 mm 0 W/m 3,2 C 5,3 C 1,6 km/h (1 Bft) 100 %
20.02.2017 01:00 5,3 C 5,3 C 5,3 C 86 % 1022,8 hPa 0,0 l/m 0,0 km/h (0 Bft) N 0 0 min 0,000 mm 0 W/m 3,2 C 5,3 C 0,0 km/h (0 Bft) 100 %
20.02.2017 01:10 5,4 C 5,3 C 5,4 C 86 % 1022,8 hPa 0,0 l/m 0,0 km/h (0 Bft) SW 225 0 min 0,000 mm 0 W/m 3,3 C 5,4 C 1,6 km/h (1 Bft) 100 %
20.02.2017 01:20 5,4 C 5,4 C 5,4 C 85 % 1022,8 hPa 0,0 l/m 1,6 km/h (1 Bft) S-SO 157 0 min 0,000 mm 0 W/m 3,1 C 5,4 C 6,4 km/h (2 Bft) 100 %
20.02.2017 01:30 5,4 C 5,4 C 5,5 C 85 % 1022,9 hPa 0,0 l/m 3,2 km/h (1 Bft) S-SO 157 0 min 0,000 mm 0 W/m 3,1 C 5,4 C 9,7 km/h (2 Bft) 100 %
20.02.2017 01:40 5,4 C 5,4 C 5,4 C 85 % 1022,7 hPa 0,0 l/m 0,0 km/h (0 Bft) S 180 0 min 0,000 mm 0 W/m 3,1 C 5,4 C 6,4 km/h (2 Bft) 100 %
20.02.2017 01:50 5,3 C 5,3 C 5,4 C 85 % 1022,7 hPa 0,0 l/m 0,0 km/h (0 Bft) N 0 0 min 0,000 mm 0 W/m 3,0 C 5,3 C 0,0 km/h (0 Bft) 100 %
20.02.2017 02:00 5,2 C 5,2 C 5,3 C 85 % 1022,7 hPa 0,0 l/m 0,0 km/h (0 Bft) N 0 0 min 0,000 mm 0 W/m 2,9 C 5,2 C 0,0 km/h (0 Bft) 100 %
20.02.2017 02:10 5,2 C 5,2 C 5,3 C 85 % 1022,6 hPa 0,0 l/m 0,0 km/h (0 Bft) N 0 0 min 0,000 mm 0 W/m 2,9 C 5,2 C 0,0 km/h (0 Bft) 100 %
20.02.2017 02:20 5,2 C 5,2 C 5,2 C 85 % 1022,7 hPa 0,0 l/m 0,0 km/h (0 Bft) N 0 0 min 0,000 mm 0 W/m 2,9 C 5,2 C 0,0 km/h (0 Bft) 100 %
20.02.2017 02:30 5,1 C 5,1 C 5,2 C 85 % 1022,6 hPa 0,0 l/m 0,0 km/h (0 Bft) N 0 0 min 0,000 mm 0 W/m 2,8 C 5,1 C 0,0 km/h (0 Bft) 100 %
20.02.2017 02:40 5,2 C 5,1 C 5,2 C 85 % 1022,6 hPa 0,0 l/m 0,0 km/h (0 Bft) S-SO 157 0 min 0,000 mm 0 W/m 2,9 C 5,2 C 4,8 km/h (1 Bft) 100 %
20.02.2017 02:50 5,2 C 5,2 C 5,2 C 85 % 1022,5 hPa 0,0 l/m 0,0 km/h (0 Bft) S-SO 157 0 min 0,000 mm 0 W/m 2,9 C 5,2 C 4,8 km/h (1 Bft) 89 %
20.02.2017 03:00 5,3 C 5,2 C 5,3 C 85 % 1022,5 hPa 0,0 l/m 0,0 km/h (0 Bft) S-SO 157 0 min 0,000 mm 0 W/m 3,0 C 5,3 C 4,8 km/h (1 Bft) 100 %
20.02.2017 03:10 5,3 C 5,2 C 5,3 C 85 % 1022,4 hPa 0,0 l/m 1,6 km/h (1 Bft) S-SO 157 0 min 0,000 mm 0 W/m 3,0 C 5,3 C 4,8 km/h (1 Bft) 100 %
20.02.2017 03:20 5,3 C 5,3 C 5,3 C 85 % 1022,4 hPa 0,0 l/m 0,0 km/h (0 Bft) S-SO 157 0 min 0,000 mm 0 W/m 3,0 C 5,3 C 4,8 km/h (1 Bft) 100 %
20.02.2017 03:30 5,2 C 5,2 C 5,3 C 85 % 1022,4 hPa 0,0 l/m 0,0 km/h (0 Bft) S-SO 157 0 min 0,000 mm 0 W/m 2,9 C 5,2 C 3,2 km/h (1 Bft) 100 %
20.02.2017 03:40 5,1 C 5,1 C 5,2 C 85 % 1022,2 hPa 0,0 l/m 0,0 km/h (0 Bft) N 0 0 min 0,000 mm 0 W/m 2,8 C 5,1 C 0,0 km/h (0 Bft) 100 %
20.02.2017 03:50 5,1 C 5,1 C 5,1 C 85 % 1022,2 hPa 0,0 l/m 1,6 km/h (1 Bft) W-SW 247 0 min 0,000 mm 0 W/m 2,8 C 5,1 C 9,7 km/h (2 Bft) 100 %
20.02.2017 04:00 5,0 C 5,0 C 5,1 C 86 % 1022,1 hPa 0,0 l/m 0,0 km/h (0 Bft) W-SW 247 0 min 0,000 mm 0 W/m 2,9 C 5,0 C 4,8 km/h (1 Bft) 100 %
20.02.2017 04:10 5,0 C 5,0 C 5,0 C 86 % 1022,2 hPa 0,0 l/m 1,6 km/h (1 Bft) W-SW 247 0 min 0,000 mm 0 W/m 2,9 C 5,0 C 8,0 km/h (2 Bft) 100 %
20.02.2017 04:20 5,0 C 5,0 C 5,0 C 86 % 1022,1 hPa 0,0 l/m 3,2 km/h (1 Bft) W-SW 247 0 min 0,000 mm 0 W/m 2,9 C 5,0 C 11,3 km/h (2 Bft) 100 %
20.02.2017 04:30 4,9 C 4,9 C 5,0 C 86 % 1022,0 hPa 0,0 l/m 3,2 km/h (1 Bft) W-SW 247 0 min 0,000 mm 0 W/m 2,8 C 4,9 C 9,7 km/h (2 Bft) 100 %
20.02.2017 04:40 4,9 C 4,9 C 4,9 C 86 % 1022,1 hPa 0,0 l/m 3,2 km/h (1 Bft) SW 225 0 min 0,000 mm 0 W/m 2,8 C 4,9 C 9,7 km/h (2 Bft) 100 %
20.02.2017 04:50 4,9 C 4,9 C 4,9 C 87 % 1022,2 hPa 0,0 l/m 1,6 km/h (1 Bft) S-SW 202 0 min 0,000 mm 0 W/m 2,9 C 4,9 C 8,0 km/h (2 Bft) 98 %
20.02.2017 05:00 4,9 C 4,8 C 4,9 C 87 % 1022,2 hPa 0,0 l/m 1,6 km/h (1 Bft) SW 225 0 min 0,000 mm 0 W/m 2,9 C 4,9 C 6,4 km/h (2 Bft) 92 %
20.02.2017 05:10 4,8 C 4,8 C 4,9 C 87 % 1022,2 hPa 0,0 l/m 1,6 km/h (1 Bft) W-SW 247 0 min 0,000 mm 0 W/m 2,8 C 4,8 C 6,4 km/h (2 Bft) 100 %
20.02.2017 05:20 4,8 C 4,8 C 4,8 C 87 % 1022,1 hPa 0,0 l/m 1,6 km/h (1 Bft) SW 225 0 min 0,000 mm 0 W/m 2,8 C 4,8 C 11,3 km/h (2 Bft) 100 %
20.02.2017 05:30 4,8 C 4,8 C 4,9 C 87 % 1022,3 hPa 0,0 l/m 1,6 km/h (1 Bft) W-SW 247 0 min 0,000 mm 0 W/m 2,8 C 4,8 C 14,5 km/h (3 Bft) 100 %
20.02.2017 05:40 4,9 C 4,8 C 4,9 C 87 % 1022,3 hPa 0,0 l/m 4,8 km/h (1 Bft) W-SW 247 0 min 0,000 mm 0 W/m 2,9 C 4,9 C 11,3 km/h (2 Bft) 100 %
20.02.2017 05:50 4,9 C 4,9 C 4,9 C 87 % 1022,2 hPa 0,0 l/m 3,2 km/h (1 Bft) SW 225 0 min 0,000 mm 0 W/m 2,9 C 4,9 C 9,7 km/h (2 Bft) 100 %
20.02.2017 06:00 4,8 C 4,8 C 4,9 C 88 % 1022,2 hPa 0,0 l/m 1,6 km/h (1 Bft) SW 225 0 min 0,000 mm 0 W/m 3,0 C 4,8 C 9,7 km/h (2 Bft) 100 %
20.02.2017 06:10 4,8 C 4,8 C 4,8 C 88 % 1022,0 hPa 0,0 l/m 0,0 km/h (0 Bft) SW 225 0 min 0,000 mm 0 W/m 3,0 C 4,8 C 3,2 km/h (1 Bft) 100 %
20.02.2017 06:20 4,8 C 4,8 C 4,8 C 88 % 1021,9 hPa 0,0 l/m 1,6 km/h (1 Bft) SW 225 0 min 0,000 mm 0 W/m 3,0 C 4,8 C 6,4 km/h (2 Bft) 100 %
20.02.2017 06:30 4,7 C 4,7 C 4,8 C 88 % 1022,0 hPa 0,0 l/m 1,6 km/h (1 Bft) SW 225 0 min 0,000 mm 0 W/m 2,9 C 4,7 C 8,0 km/h (2 Bft) 100 %
20.02.2017 06:40 4,6 C 4,6 C 4,7 C 88 % 1022,1 hPa 0,0 l/m 0,0 km/h (0 Bft) SW 225 0 min 0,000 mm 0 W/m 2,8 C 4,6 C 8,0 km/h (2 Bft) 100 %
20.02.2017 06:50 4,5 C 4,5 C 4,6 C 89 % 1021,9 hPa 0,0 l/m 1,6 km/h (1 Bft) SW 225 0 min 0,000 mm 0 W/m 2,8 C 4,5 C 6,4 km/h (2 Bft) 100 %
20.02.2017 07:00 4,3 C 4,3 C 4,5 C 88 % 1022,0 hPa 0,0 l/m 1,6 km/h (1 Bft) SW 225 0 min 0,000 mm 0 W/m 2,5 C 4,3 C 6,4 km/h (2 Bft) 91 %
20.02.2017 07:10 4,3 C 4,3 C 4,3 C 89 % 1022,1 hPa 0,0 l/m 0,0 km/h (0 Bft) SW 225 0 min 0,000 mm 0 W/m 2,7 C 4,3 C 9,7 km/h (2 Bft) 100 %
20.02.2017 07:20 4,3 C 4,3 C 4,3 C 89 % 1022,1 hPa 0,0 l/m 3,2 km/h (1 Bft) SW 225 0 min 0,000 mm 0 W/m 2,7 C 4,3 C 14,5 km/h (3 Bft) 100 %
20.02.2017 07:30 4,3 C 4,3 C 4,3 C 89 % 1022,0 hPa 0,0 l/m 4,8 km/h (1 Bft) SW 225 0 min 0,000 mm 5 W/m 2,7 C 4,3 C 14,5 km/h (3 Bft) 100 %
20.02.2017 07:40 4,4 C 4,3 C 4,4 C 89 % 1022,1 hPa 0,0 l/m 6,4 km/h (2 Bft) SW 225 0 min 0,000 mm 12 W/m 2,7 C 4,4 C 17,7 km/h (3 Bft) 100 %
20.02.2017 07:50 4,4 C 4,3 C 4,4 C 89 % 1022,2 hPa 0,0 l/m 4,8 km/h (1 Bft) SW 225 0 min 0,000 mm 23 W/m 2,7 C 4,4 C 11,3 km/h (2 Bft) 100 %
20.02.2017 08:00 4,4 C 4,4 C 4,4 C 89 % 1022,1 hPa 0,0 l/m 6,4 km/h (2 Bft) S-SW 202 0 min 0,000 mm 18 W/m 2,7 C 4,4 C 11,3 km/h (2 Bft) 100 %
20.02.2017 08:10 4,4 C 4,4 C 4,4 C 89 % 1022,2 hPa 0,0 l/m 4,8 km/h (1 Bft) S-SW 202 0 min 0,000 mm 39 W/m 2,7 C 4,4 C 9,7 km/h (2 Bft) 100 %
20.02.2017 08:20 4,4 C 4,4 C 4,4 C 90 % 1022,4 hPa 0,0 l/m 3,2 km/h (1 Bft) S-SW 202 0 min 0,000 mm 47 W/m 2,9 C 4,4 C 8,0 km/h (2 Bft) 100 %
20.02.2017 08:30 4,6 C 4,4 C 4,6 C 90 % 1022,4 hPa 0,0 l/m 4,8 km/h (1 Bft) S-SW 202 0 min 0,000 mm 49 W/m 3,1 C 4,6 C 9,7 km/h (2 Bft) 100 %
20.02.2017 08:40 4,6 C 4,6 C 4,6 C 89 % 1022,4 hPa 0,0 l/m 4,8 km/h (1 Bft) SW 225 0 min 0,000 mm 49 W/m 2,9 C 4,6 C 11,3 km/h (2 Bft) 100 %
20.02.2017 08:50 4,6 C 4,6 C 4,6 C 89 % 1022,6 hPa 0,0 l/m 6,4 km/h (2 Bft) SW 225 0 min 0,000 mm 56 W/m 2,9 C 4,6 C 16,1 km/h (3 Bft) 96 %
20.02.2017 09:00 4,8 C 4,6 C 4,8 C 90 % 1022,7 hPa 0,0 l/m 6,4 km/h (2 Bft) SW 225 0 min 0,025 mm 141 W/m 3,3 C 4,8 C 14,5 km/h (3 Bft) 94 %
20.02.2017 09:10 5,1 C 4,8 C 5,1 C 89 % 1022,6 hPa 0,0 l/m 6,4 km/h (2 Bft) SW 225 0 min 0,000 mm 134 W/m 3,4 C 5,1 C 19,3 km/h (3 Bft) 100 %
20.02.2017 09:20 5,5 C 5,1 C 5,5 C 89 % 1022,6 hPa 0,0 l/m 8,0 km/h (2 Bft) SW 225 10 min 0,000 mm 209 W/m 3,8 C 4,1 C 17,7 km/h (3 Bft) 100 %
20.02.2017 09:30 5,9 C 5,5 C 5,9 C 87 % 1022,6 hPa 0,0 l/m 9,7 km/h (2 Bft) SW 225 10 min 0,000 mm 220 W/m 3,9 C 3,3 C 19,3 km/h (3 Bft) 100 %
20.02.2017 09:40 5,9 C 5,8 C 5,9 C 88 % 1022,7 hPa 0,0 l/m 12,9 km/h (3 Bft) SW 225 10 min 0,000 mm 220 W/m 4,1 C 1,3 C 22,5 km/h (4 Bft) 100 %
20.02.2017 09:50 6,4 C 5,9 C 6,4 C 88 % 1022,6 hPa 0,0 l/m 8,0 km/h (2 Bft) W-SW 247 10 min 0,000 mm 306 W/m 4,6 C 5,1 C 16,1 km/h (3 Bft) 100 %
20.02.2017 10:00 6,4 C 6,4 C 6,5 C 86 % 1022,6 hPa 0,0 l/m 8,0 km/h (2 Bft) W-SW 247 0 min 0,076 mm 88 W/m 4,2 C 5,1 C 16,1 km/h (3 Bft) 100 %
20.02.2017 10:10 6,3 C 6,3 C 6,4 C 86 % 1022,6 hPa 0,0 l/m 3,2 km/h (1 Bft) SW 225 0 min 0,000 mm 62 W/m 4,1 C 6,3 C 11,3 km/h (2 Bft) 100 %
20.02.2017 10:20 6,3 C 6,2 C 6,3 C 87 % 1022,7 hPa 0,0 l/m 4,8 km/h (1 Bft) SW 225 0 min 0,000 mm 135 W/m 4,3 C 6,3 C 16,1 km/h (3 Bft) 100 %
20.02.2017 10:30 6,4 C 6,3 C 6,4 C 87 % 1022,7 hPa 0,0 l/m 11,3 km/h (2 Bft) W-SW 247 10 min 0,000 mm 185 W/m 4,4 C 2,8 C 29,0 km/h (5 Bft) 100 %
20.02.2017 10:40 6,6 C 6,4 C 6,6 C 87 % 1022,7 hPa 0,0 l/m 9,7 km/h (2 Bft) W-SW 247 10 min 0,000 mm 185 W/m 4,6 C 4,0 C 20,9 km/h (4 Bft) 100 %
20.02.2017 10:50 6,9 C 6,6 C 6,9 C 87 % 1022,6 hPa 0,0 l/m 11,3 km/h (2 Bft) SW 225 10 min 0,000 mm 236 W/m 4,9 C 3,4 C 25,7 km/h (4 Bft) 100 %
20.02.2017 11:00 7,0 C 6,9 C 7,0 C 86 % 1022,3 hPa 0,0 l/m 11,3 km/h (2 Bft) SW 225 10 min 0,051 mm 188 W/m 4,8 C 3,5 C 24,1 km/h (4 Bft) 100 %
20.02.2017 11:10 6,9 C 6,9 C 7,0 C 87 % 1022,1 hPa 0,0 l/m 12,9 km/h (3 Bft) SW 225 0 min 0,000 mm 104 W/m 4,9 C 2,4 C 24,1 km/h (4 Bft) 100 %
20.02.2017 11:20 6,9 C 6,8 C 6,9 C 87 % 1021,9 hPa 0,0 l/m 11,3 km/h (2 Bft) SW 225 0 min 0,000 mm 121 W/m 4,9 C 3,4 C 24,1 km/h (4 Bft) 100 %
20.02.2017 11:30 7,0 C 6,9 C 7,0 C 87 % 1021,9 hPa 0,0 l/m 14,5 km/h (3 Bft) SW 225 10 min 0,000 mm 153 W/m 5,0 C 1,7 C 30,6 km/h (5 Bft) 91 %
20.02.2017 11:40 7,1 C 7,0 C 7,1 C 87 % 1021,8 hPa 0,0 l/m 14,5 km/h (3 Bft) SW 225 0 min 0,000 mm 141 W/m 5,1 C 1,9 C 33,8 km/h (5 Bft) 100 %
20.02.2017 11:50 7,2 C 7,1 C 7,2 C 87 % 1021,8 hPa 0,0 l/m 14,5 km/h (3 Bft) SW 225 0 min 0,000 mm 104 W/m 5,2 C 2,0 C 27,4 km/h (4 Bft) 99 %
20.02.2017 12:00 7,1 C 7,1 C 7,2 C 87 % 1021,7 hPa 0,0 l/m 16,1 km/h (3 Bft) S-SW 202 0 min 0,051 mm 72 W/m 5,1 C 1,1 C 29,0 km/h (5 Bft) 100 %
20.02.2017 12:10 6,9 C 6,9 C 7,1 C 88 % 1021,6 hPa 0,0 l/m 17,7 km/h (3 Bft) S-SW 202 0 min 0,000 mm 83 W/m 5,1 C 0,2 C 33,8 km/h (5 Bft) 100 %
20.02.2017 12:20 6,7 C 6,7 C 6,9 C 88 % 1021,5 hPa 0,0 l/m 17,7 km/h (3 Bft) S-SW 202 0 min 0,000 mm 69 W/m 4,9 C -0,1 C 30,6 km/h (5 Bft) 100 %
20.02.2017 12:30 6,7 C 6,7 C 6,7 C 89 % 1021,4 hPa 0,0 l/m 12,9 km/h (3 Bft) SW 225 0 min 0,000 mm 69 W/m 5,0 C 2,2 C 29,0 km/h (5 Bft) 100 %
20.02.2017 12:40 6,7 C 6,7 C 6,7 C 89 % 1021,3 hPa 0,0 l/m 16,1 km/h (3 Bft) SW 225 0 min 0,000 mm 79 W/m 5,0 C 0,6 C 35,4 km/h (5 Bft) 100 %
20.02.2017 12:50 6,7 C 6,7 C 6,7 C 89 % 1021,2 hPa 0,0 l/m 14,5 km/h (3 Bft) SW 225 0 min 0,000 mm 70 W/m 5,0 C 1,4 C 29,0 km/h (5 Bft) 100 %
20.02.2017 13:00 6,7 C 6,7 C 6,7 C 89 % 1021,0 hPa 0,0 l/m 14,5 km/h (3 Bft) SW 225 0 min 0,051 mm 81 W/m 5,0 C 1,4 C 30,6 km/h (5 Bft) 100 %
20.02.2017 13:10 6,8 C 6,7 C 6,8 C 89 % 1020,9 hPa 0,0 l/m 12,9 km/h (3 Bft) SW 225 0 min 0,000 mm 114 W/m 5,1 C 2,3 C 25,7 km/h (4 Bft) 100 %
20.02.2017 13:20 6,9 C 6,8 C 6,9 C 88 % 1020,8 hPa 0,0 l/m 14,5 km/h (3 Bft) SW 225 0 min 0,000 mm 151 W/m 5,1 C 1,6 C 38,6 km/h (5 Bft) 100 %
20.02.2017 13:30 7,1 C 6,9 C 7,1 C 88 % 1020,6 hPa 0,0 l/m 14,5 km/h (3 Bft) W-SW 247 0 min 0,000 mm 120 W/m 5,2 C 1,9 C 35,4 km/h (5 Bft) 100 %
20.02.2017 13:40 7,2 C 7,1 C 7,2 C 88 % 1020,5 hPa 0,0 l/m 12,9 km/h (3 Bft) SW 225 0 min 0,000 mm 118 W/m 5,3 C 2,8 C 24,1 km/h (4 Bft) 100 %
20.02.2017 13:50 7,2 C 7,1 C 7,2 C 87 % 1020,4 hPa 0,0 l/m 11,3 km/h (2 Bft) SW 225 0 min 0,000 mm 86 W/m 5,2 C 3,7 C 24,1 km/h (4 Bft) 100 %
20.02.2017 14:00 7,2 C 7,2 C 7,3 C 87 % 1020,5 hPa 0,0 l/m 14,5 km/h (3 Bft) SW 225 0 min 0,051 mm 49 W/m 5,2 C 2,0 C 24,1 km/h (4 Bft) 100 %
20.02.2017 14:10 7,3 C 7,2 C 7,3 C 87 % 1020,3 hPa 0,0 l/m 12,9 km/h (3 Bft) SW 225 0 min 0,000 mm 40 W/m 5,3 C 2,9 C 25,7 km/h (4 Bft) 89 %
20.02.2017 14:20 7,3 C 7,3 C 7,3 C 86 % 1020,1 hPa 0,0 l/m 14,5 km/h (3 Bft) SW 225 0 min 0,000 mm 37 W/m 5,1 C 2,1 C 27,4 km/h (4 Bft) 100 %
20.02.2017 14:30 7,3 C 7,3 C 7,3 C 86 % 1019,8 hPa 0,0 l/m 9,7 km/h (2 Bft) W-SW 247 0 min 0,000 mm 39 W/m 5,1 C 4,8 C 19,3 km/h (3 Bft) 100 %
20.02.2017 14:40 7,3 C 7,3 C 7,4 C 86 % 1019,8 hPa 0,0 l/m 9,7 km/h (2 Bft) SW 225 0 min 0,000 mm 35 W/m 5,1 C 4,8 C 19,3 km/h (3 Bft) 100 %
20.02.2017 14:50 7,4 C 7,3 C 7,4 C 86 % 1019,8 hPa 0,0 l/m 12,9 km/h (3 Bft) SW 225 0 min 0,000 mm 42 W/m 5,2 C 3,0 C 24,1 km/h (4 Bft) 100 %
20.02.2017 15:00 7,4 C 7,4 C 7,4 C 86 % 1019,6 hPa 0,0 l/m 12,9 km/h (3 Bft) SW 225 0 min 0,025 mm 49 W/m 5,2 C 3,0 C 30,6 km/h (5 Bft) 100 %
20.02.2017 15:10 7,3 C 7,3 C 7,4 C 87 % 1019,4 hPa 0,0 l/m 14,5 km/h (3 Bft) SW 225 0 min 0,000 mm 42 W/m 5,3 C 2,1 C 32,2 km/h (5 Bft) 100 %
20.02.2017 15:20 7,3 C 7,3 C 7,3 C 87 % 1019,3 hPa 0,0 l/m 16,1 km/h (3 Bft) SW 225 0 min 0,000 mm 40 W/m 5,3 C 1,4 C 29,0 km/h (5 Bft) 100 %
20.02.2017 15:30 7,3 C 7,3 C 7,3 C 87 % 1019,3 hPa 0,0 l/m 12,9 km/h (3 Bft) SW 225 0 min 0,000 mm 39 W/m 5,3 C 2,9 C 25,7 km/h (4 Bft) 100 %
20.02.2017 15:40 7,4 C 7,3 C 7,4 C 87 % 1019,3 hPa 0,0 l/m 16,1 km/h (3 Bft) SW 225 0 min 0,000 mm 35 W/m 5,4 C 1,5 C 32,2 km/h (5 Bft) 100 %
20.02.2017 15:50 7,5 C 7,4 C 7,6 C 87 % 1019,2 hPa 0,0 l/m 12,9 km/h (3 Bft) SW 225 0 min 0,000 mm 33 W/m 5,5 C 3,1 C 32,2 km/h (5 Bft) 100 %
20.02.2017 16:00 7,6 C 7,5 C 7,6 C 87 % 1019,1 hPa 0,0 l/m 12,9 km/h (3 Bft) SW 225 0 min 0,025 mm 33 W/m 5,6 C 3,3 C 30,6 km/h (5 Bft) 100 %
20.02.2017 16:10 7,6 C 7,6 C 7,6 C 87 % 1019,0 hPa 0,0 l/m 11,3 km/h (2 Bft) SW 225 0 min 0,000 mm 21 W/m 5,6 C 4,1 C 25,7 km/h (4 Bft) 100 %
20.02.2017 16:20 7,6 C 7,6 C 7,6 C 87 % 1018,8 hPa 0,0 l/m 12,9 km/h (3 Bft) S-SW 202 0 min 0,000 mm 16 W/m 5,6 C 3,3 C 25,7 km/h (4 Bft) 100 %
20.02.2017 16:30 7,6 C 7,6 C 7,6 C 91 % 1019,1 hPa 0,0 l/m 14,5 km/h (3 Bft) S-SW 202 0 min 0,000 mm 14 W/m 6,2 C 2,5 C 32,2 km/h (5 Bft) 100 %
20.02.2017 16:40 7,6 C 7,5 C 7,6 C 87 % 1018,9 hPa 0,0 l/m 12,9 km/h (3 Bft) SW 225 0 min 0,000 mm 9 W/m 5,6 C 3,3 C 25,7 km/h (4 Bft) 100 %
20.02.2017 16:50 7,5 C 7,4 C 7,6 C 88 % 1018,7 hPa 0,0 l/m 14,5 km/h (3 Bft) S-SW 202 0 min 0,000 mm 7 W/m 5,6 C 2,3 C 29,0 km/h (5 Bft) 91 %
20.02.2017 17:00 7,3 C 7,3 C 7,5 C 88 % 1018,6 hPa 0,0 l/m 14,5 km/h (3 Bft) S-SW 202 0 min 0,025 mm 5 W/m 5,4 C 2,1 C 25,7 km/h (4 Bft) 100 %
20.02.2017 17:10 7,3 C 7,3 C 7,3 C 89 % 1018,7 hPa 0,0 l/m 14,5 km/h (3 Bft) S-SW 202 0 min 0,000 mm 7 W/m 5,6 C 2,1 C 27,4 km/h (4 Bft) 100 %
20.02.2017 17:20 7,3 C 7,3 C 7,3 C 89 % 1018,6 hPa 0,2 l/m 16,2 km/h (3 Bft) S-SW 202 0 min 0,001 mm 0 W/m 5,6 C 1,3 C 29,0 km/h (5 Bft) 99 %
20.02.2017 17:30 7,2 C 7,2 C 7,3 C 89 % 1018,5 hPa 0,0 l/m 15,6 km/h (3 Bft) SW 223 0 min 0,000 mm 0 W/m 5,5 C 1,5 C 25,7 km/h (4 Bft) 100 %
20.02.2017 17:40 7,1 C 7,1 C 7,2 C 90 % 1018,6 hPa 0,0 l/m 13,8 km/h (3 Bft) SW 227 0 min 0,000 mm 0 W/m 5,6 C 2,2 C 25,7 km/h (4 Bft) 100 %
20.02.2017 17:50 7,1 C 7,1 C 7,1 C 90 % 1018,6 hPa 0,0 l/m 13,2 km/h (3 Bft) SW 219 0 min 0,000 mm 0 W/m 5,6 C 2,5 C 29,0 km/h (5 Bft) 100 %
20.02.2017 18:00 7,0 C 7,0 C 7,1 C 90 % 1018,5 hPa 0,0 l/m 14,2 km/h (3 Bft) S-SW 205 0 min 0,025 mm 0 W/m 5,5 C 1,9 C 24,1 km/h (4 Bft) 100 %
20.02.2017 18:10 7,1 C 7,0 C 7,1 C 90 % 1018,5 hPa 0,0 l/m 12,8 km/h (3 Bft) W-SW 257 0 min 0,000 mm 0 W/m 5,6 C 2,7 C 24,1 km/h (4 Bft) 100 %
20.02.2017 18:20 7,1 C 7,1 C 7,1 C 90 % 1018,6 hPa 0,0 l/m 14,5 km/h (3 Bft) S-SW 193 0 min 0,000 mm 0 W/m 5,6 C 1,9 C 32,2 km/h (5 Bft) 100 %
20.02.2017 18:30 7,1 C 7,1 C 7,1 C 90 % 1018,5 hPa 0,0 l/m 14,6 km/h (3 Bft) S-SW 203 0 min 0,000 mm 0 W/m 5,6 C 1,8 C 24,1 km/h (4 Bft) 100 %
20.02.2017 18:40 7,0 C 7,0 C 7,1 C 91 % 1018,6 hPa 0,0 l/m 17,3 km/h (3 Bft) W-SW 247 0 min 0,000 mm 0 W/m 5,6 C 0,5 C 33,8 km/h (5 Bft) 100 %
20.02.2017 18:50 6,9 C 6,9 C 7,0 C 91 % 1018,6 hPa 0,0 l/m 15,8 km/h (3 Bft) SW 223 0 min 0,000 mm 0 W/m 5,5 C 1,0 C 30,6 km/h (5 Bft) 100 %
20.02.2017 19:00 6,8 C 6,8 C 6,9 C 91 % 1018,6 hPa 0,0 l/m 14,6 km/h (3 Bft) W-SW 240 0 min 0,026 mm 0 W/m 5,4 C 1,5 C 32,2 km/h (5 Bft) 100 %
20.02.2017 19:10 6,8 C 6,8 C 6,8 C 91 % 1018,6 hPa 0,4 l/m 12,9 km/h (3 Bft) S-SW 211 0 min 0,000 mm 0 W/m 5,4 C 2,3 C 29,0 km/h (5 Bft) 100 %
20.02.2017 19:20 6,7 C 6,7 C 6,8 C 91 % 1018,8 hPa 0,2 l/m 12,1 km/h (2 Bft) SW 215 0 min 0,000 mm 0 W/m 5,3 C 2,7 C 29,0 km/h (5 Bft) 100 %
20.02.2017 19:30 6,7 C 6,7 C 6,7 C 91 % 1018,6 hPa 0,2 l/m 13,0 km/h (3 Bft) SW 231 0 min 0,000 mm 0 W/m 5,3 C 2,2 C 30,6 km/h (5 Bft) 100 %
20.02.2017 19:40 6,6 C 6,6 C 6,7 C 91 % 1018,6 hPa 0,0 l/m 9,5 km/h (2 Bft) SW 217 0 min 0,000 mm 0 W/m 5,2 C 4,2 C 19,3 km/h (3 Bft) 100 %
20.02.2017 19:50 6,6 C 6,6 C 6,6 C 91 % 1018,5 hPa 0,2 l/m 10,2 km/h (2 Bft) SW 215 0 min 0,000 mm 0 W/m 5,2 C 3,7 C 20,9 km/h (4 Bft) 100 %
20.02.2017 20:00 6,6 C 6,6 C 6,6 C 91 % 1018,4 hPa 0,0 l/m 15,1 km/h (3 Bft) S-SW 194 0 min 0,025 mm 0 W/m 5,2 C 1,0 C 30,6 km/h (5 Bft) 100 %
20.02.2017 20:10 6,6 C 6,6 C 6,6 C 91 % 1018,4 hPa 0,0 l/m 16,9 km/h (3 Bft) S-SW 211 0 min 0,000 mm 0 W/m 5,2 C 0,1 C 30,6 km/h (5 Bft) 100 %
20.02.2017 20:20 6,6 C 6,6 C 6,7 C 91 % 1018,2 hPa 0,0 l/m 16,2 km/h (3 Bft) SW 219 0 min 0,000 mm 0 W/m 5,2 C 0,5 C 29,0 km/h (5 Bft) 100 %
20.02.2017 20:30 6,6 C 6,6 C 6,6 C 91 % 1018,3 hPa 0,0 l/m 16,7 km/h (3 Bft) W-SW 242 0 min 0,000 mm 0 W/m 5,2 C 0,2 C 33,8 km/h (5 Bft) 100 %
20.02.2017 20:40 6,6 C 6,6 C 6,6 C 91 % 1018,4 hPa 0,0 l/m 13,7 km/h (3 Bft) SW 234 0 min 0,000 mm 0 W/m 5,2 C 1,7 C 30,6 km/h (5 Bft) 100 %
20.02.2017 20:50 6,6 C 6,6 C 6,6 C 91 % 1018,3 hPa 0,2 l/m 17,5 km/h (3 Bft) SW 225 0 min 0,000 mm 0 W/m 5,2 C -0,1 C 35,4 km/h (5 Bft) 100 %
20.02.2017 21:00 6,6 C 6,6 C 6,7 C 91 % 1018,3 hPa 0,0 l/m 16,7 km/h (3 Bft) SW 232 0 min 0,026 mm 0 W/m 5,2 C 0,2 C 30,6 km/h (5 Bft) 100 %
20.02.2017 21:10 6,6 C 6,6 C 6,6 C 91 % 1018,2 hPa 0,0 l/m 16,1 km/h (3 Bft) SW 225 0 min 0,000 mm 0 W/m 5,2 C 0,5 C 32,2 km/h (5 Bft) 98 %
20.02.2017 21:20 6,6 C 6,6 C 6,6 C 91 % 1018,3 hPa 0,0 l/m 16,1 km/h (3 Bft) SW 225 0 min 0,000 mm 0 W/m 5,2 C 0,5 C 32,2 km/h (5 Bft) 98 %
20.02.2017 21:30 6,6 C 6,6 C 6,6 C 91 % 1018,3 hPa 0,0 l/m 12,9 km/h (3 Bft) SW 225 0 min 0,000 mm 0 W/m 5,2 C 2,1 C 30,6 km/h (5 Bft) 98 %
20.02.2017 21:40 6,6 C 6,6 C 6,6 C 91 % 1018,4 hPa 0,2 l/m 14,5 km/h (3 Bft) SW 225 0 min 0,000 mm 0 W/m 5,2 C 1,3 C 29,0 km/h (5 Bft) 88 %
20.02.2017 21:50 6,6 C 6,6 C 6,6 C 91 % 1018,4 hPa 0,0 l/m 11,3 km/h (2 Bft) W-SW 247 0 min 0,000 mm 0 W/m 5,2 C 3,0 C 35,4 km/h (5 Bft) 98 %
20.02.2017 22:00 6,6 C 6,6 C 6,6 C 91 % 1018,2 hPa 0,0 l/m 16,1 km/h (3 Bft) W-SW 247 0 min 0,025 mm 0 W/m 5,2 C 0,5 C 35,4 km/h (5 Bft) 97 %
20.02.2017 22:10 6,7 C 6,6 C 6,7 C 91 % 1018,2 hPa 0,2 l/m 16,1 km/h (3 Bft) W 270 0 min 0,000 mm 0 W/m 5,3 C 0,6 C 41,8 km/h (6 Bft) 97 %
20.02.2017 22:20 6,7 C 6,6 C 6,7 C 91 % 1018,2 hPa 0,0 l/m 19,3 km/h (3 Bft) W-SW 247 0 min 0,000 mm 0 W/m 5,3 C -0,7 C 53,1 km/h (7 Bft) 97 %
20.02.2017 22:30 6,7 C 6,6 C 6,7 C 91 % 1018,4 hPa 0,0 l/m 14,5 km/h (3 Bft) W-SW 247 0 min 0,000 mm 0 W/m 5,3 C 1,4 C 30,6 km/h (5 Bft) 97 %
20.02.2017 22:40 6,7 C 6,7 C 6,7 C 91 % 1018,4 hPa 0,0 l/m 16,1 km/h (3 Bft) SW 225 0 min 0,000 mm 0 W/m 5,3 C 0,6 C 35,4 km/h (5 Bft) 98 %
20.02.2017 22:50 6,7 C 6,7 C 6,7 C 91 % 1018,0 hPa 0,0 l/m 12,9 km/h (3 Bft) SW 225 0 min 0,000 mm 0 W/m 5,3 C 2,2 C 29,0 km/h (5 Bft) 98 %
20.02.2017 23:00 6,7 C 6,7 C 6,7 C 91 % 1018,0 hPa 0,0 l/m 11,3 km/h (2 Bft) SW 225 0 min 0,025 mm 0 W/m 5,3 C 3,1 C 24,1 km/h (4 Bft) 98 %
20.02.2017 23:10 6,7 C 6,7 C 6,7 C 91 % 1018,0 hPa 0,0 l/m 12,9 km/h (3 Bft) W-SW 247 0 min 0,000 mm 0 W/m 5,3 C 2,2 C 33,8 km/h (5 Bft) 98 %
20.02.2017 23:20 6,7 C 6,7 C 6,7 C 92 % 1017,9 hPa 0,0 l/m 9,7 km/h (2 Bft) W-SW 247 0 min 0,000 mm 0 W/m 5,5 C 4,2 C 24,1 km/h (4 Bft) 98 %
20.02.2017 23:30 6,8 C 6,7 C 6,8 C 92 % 1017,9 hPa 0,0 l/m 11,3 km/h (2 Bft) W-SW 247 0 min 0,000 mm 0 W/m 5,6 C 3,2 C 25,7 km/h (4 Bft) 98 %
20.02.2017 23:40 6,8 C 6,8 C 6,8 C 92 % 1017,9 hPa 0,0 l/m 11,3 km/h (2 Bft) W-SW 247 0 min 0,000 mm 0 W/m 5,6 C 3,2 C 25,7 km/h (4 Bft) 97 %
20.02.2017 23:50 6,8 C 6,8 C 6,8 C 92 % 1017,9 hPa 0,0 l/m 9,7 km/h (2 Bft) W-SW 247 0 min 0,000 mm 0 W/m 5,6 C 4,3 C 25,7 km/h (4 Bft) 98 %
_ Min-Zeit 07:00 07:00 07:10 00:30 23:20 - 00:00 - - - - - 07:00 22:20 00:00 21:40
Minimum _ 4,3 C 4,3 C 4,3 C 85 % 1017,9 hPa - 0,0 km/h (0 Bft) - - - - - 2,5 C -0,7 C 0,0 km/h (0 Bft) 88 %
_ Max-Zeit 15:50 16:10 15:50 23:20 00:10 19:10 22:20 - - 09:20 10:00 09:50 16:30 10:10 22:20 00:00
Maximum _ 7,6 C 7,6 C 7,6 C 92 % 1023,0 hPa 0,4 l/m 19,3 km/h
W-SW (3 Bft)
- - 10 min 0,076 mm 306 W/m 6,2 C 6,3 C 53,1 km/h
W-SW (7 Bft)
100 %
Durchschnitt _ 6,1 C 6,1 C 6,2 C 88 % 1020,7 hPa #1,8 l/m 8,9 km/h (2 Bft) SW - #1:30 h #0,533 mm 84 W/m 4,3 C 3,3 C 20,0 km/h (4 Bft) 99 %
PRIVATE WETTERSTATION BILLIGHEIM-ALLFELD - www.neckar-odenwald-wetter.de - Holger Sonntag